createdAt,value
2022-10-25T00:02:21.525Z,17.83
2022-10-25T00:04:49.732Z,17.83
2022-10-25T00:07:17.281Z,17.82
2022-10-25T00:09:45.128Z,17.79
2022-10-25T00:12:12.610Z,17.76
2022-10-25T00:14:40.558Z,17.72
2022-10-25T00:17:08.109Z,17.68
2022-10-25T00:19:35.815Z,17.63
2022-10-25T00:22:03.346Z,17.59
2022-10-25T00:24:31.261Z,17.56
2022-10-25T00:26:58.994Z,17.55
2022-10-25T00:29:26.874Z,17.56
2022-10-25T00:31:54.382Z,17.51
2022-10-25T00:34:22.097Z,17.46
2022-10-25T00:36:49.634Z,17.39
2022-10-25T00:39:17.474Z,17.36
2022-10-25T00:41:44.950Z,17.34
2022-10-25T00:44:40.057Z,17.32
2022-10-25T00:47:19.573Z,17.31
2022-10-25T00:49:58.906Z,17.27
2022-10-25T00:52:29.904Z,17.25
2022-10-25T00:54:58.610Z,17.28
2022-10-25T00:57:34.701Z,17.30
2022-10-25T01:00:04.463Z,17.30
2022-10-25T01:02:32.205Z,17.31
2022-10-25T01:05:00.362Z,17.27
2022-10-25T01:07:27.870Z,17.28
2022-10-25T01:09:55.916Z,17.27
2022-10-25T01:12:23.369Z,17.27
2022-10-25T01:14:52.920Z,17.27
2022-10-25T01:17:44.782Z,17.28
2022-10-25T01:20:27.138Z,17.27
2022-10-25T01:23:19.370Z,17.29
2022-10-25T01:26:08.487Z,17.28
2022-10-25T01:29:18.270Z,17.26
2022-10-25T01:32:01.128Z,17.22
2022-10-25T01:34:41.331Z,17.19
2022-10-25T01:37:24.602Z,17.22
2022-10-25T01:40:39.169Z,17.33
2022-10-25T01:43:39.014Z,17.46
2022-10-25T01:46:50.504Z,17.75
2022-10-25T01:50:08.817Z,17.82
2022-10-25T01:52:36.343Z,17.87
2022-10-25T01:55:08.995Z,17.95
2022-10-25T01:58:12.217Z,18.02
2022-10-25T02:01:46.449Z,18.02
2022-10-25T02:04:25.930Z,17.94
2022-10-25T02:07:20.963Z,17.93
2022-10-25T02:10:29.511Z,17.95
2022-10-25T02:13:08.057Z,17.96
2022-10-25T02:15:40.717Z,18.05
2022-10-25T02:18:16.102Z,18.09
2022-10-25T02:20:46.820Z,18.12
2022-10-25T02:23:17.825Z,18.15
2022-10-25T02:25:47.793Z,18.24
2022-10-25T02:28:19.304Z,18.23
2022-10-25T02:30:48.002Z,18.27
2022-10-25T02:33:15.942Z,18.21
2022-10-25T02:35:43.611Z,18.15
2022-10-25T02:38:11.577Z,18.16
2022-10-25T02:40:39.180Z,18.07
2022-10-25T02:43:06.967Z,18.04
2022-10-25T02:45:34.446Z,18.02
2022-10-25T02:48:02.288Z,18.03
2022-10-25T02:50:29.754Z,17.96
2022-10-25T02:52:57.533Z,17.97
2022-10-25T02:55:24.992Z,17.86
2022-10-25T02:57:52.763Z,17.81
2022-10-25T03:00:20.336Z,17.80
2022-10-25T03:02:48.301Z,17.78
2022-10-25T03:05:16.109Z,17.80
2022-10-25T03:07:43.853Z,17.84
2022-10-25T03:10:11.543Z,17.82
2022-10-25T03:12:39.333Z,17.87
2022-10-25T03:15:07.885Z,17.90
2022-10-25T03:17:35.914Z,17.92
2022-10-25T03:20:03.826Z,17.93
2022-10-25T03:22:32.085Z,17.93
2022-10-25T03:24:59.583Z,18.01
2022-10-25T03:27:27.544Z,17.99
2022-10-25T03:29:55.097Z,17.96
2022-10-25T03:32:22.876Z,18.03
2022-10-25T03:34:50.366Z,17.94
2022-10-25T03:37:18.084Z,17.86
2022-10-25T03:39:45.684Z,17.87
2022-10-25T03:42:13.557Z,17.79
2022-10-25T03:44:41.175Z,17.78
2022-10-25T03:47:08.907Z,17.75
2022-10-25T03:49:36.645Z,17.69
2022-10-25T03:52:07.321Z,17.64
2022-10-25T03:54:35.442Z,17.66
2022-10-25T03:57:04.144Z,17.69
2022-10-25T03:59:31.666Z,17.64
2022-10-25T04:02:00.437Z,17.50
2022-10-25T04:04:28.174Z,17.45
2022-10-25T04:06:55.975Z,17.36
2022-10-25T04:09:23.485Z,17.30
2022-10-25T04:11:51.258Z,17.33
2022-10-25T04:14:18.724Z,17.36
2022-10-25T04:16:46.558Z,17.38
2022-10-25T04:19:14.117Z,17.33
2022-10-25T04:21:42.463Z,17.44
2022-10-25T04:24:10.281Z,17.44
2022-10-25T04:26:38.858Z,17.46
2022-10-25T04:29:06.828Z,17.50
2022-10-25T04:31:34.704Z,17.60
2022-10-25T04:34:02.174Z,17.57
2022-10-25T04:36:31.238Z,17.57
2022-10-25T04:38:58.849Z,17.51
2022-10-25T04:41:26.910Z,17.50
2022-10-25T04:43:54.333Z,17.45
2022-10-25T04:46:22.223Z,17.45
2022-10-25T04:48:49.919Z,17.40
2022-10-25T04:51:18.025Z,17.37
2022-10-25T04:53:45.628Z,17.32
2022-10-25T04:56:14.528Z,17.25
2022-10-25T04:58:42.331Z,17.20
2022-10-25T05:01:14.761Z,17.22
2022-10-25T05:03:42.901Z,17.19
2022-10-25T05:06:18.118Z,17.19
2022-10-25T05:08:51.065Z,17.13
2022-10-25T05:11:22.029Z,17.07
2022-10-25T05:13:49.852Z,17.05
2022-10-25T05:16:23.504Z,17.04
2022-10-25T05:18:55.107Z,17.06
2022-10-25T05:21:31.503Z,17.03
2022-10-25T05:24:02.032Z,17.09
2022-10-25T05:26:31.406Z,17.13
2022-10-25T05:28:59.174Z,17.12
2022-10-25T05:31:30.264Z,17.25
2022-10-25T05:34:01.179Z,17.21
2022-10-25T05:36:29.587Z,17.18
2022-10-25T05:38:58.336Z,17.23
2022-10-25T05:41:26.052Z,17.29
2022-10-25T05:43:53.637Z,17.36
2022-10-25T05:46:23.590Z,17.32
2022-10-25T05:48:53.710Z,17.30
2022-10-25T05:51:35.193Z,17.36
2022-10-25T05:54:12.588Z,17.37
2022-10-25T05:56:42.498Z,17.42
2022-10-25T05:59:14.373Z,17.40
2022-10-25T06:01:46.085Z,17.42
2022-10-25T06:04:15.483Z,17.38
2022-10-25T06:06:45.806Z,17.35
2022-10-25T06:09:14.310Z,17.38
2022-10-25T06:11:42.253Z,17.42
2022-10-25T06:14:11.211Z,17.34
2022-10-25T06:16:39.186Z,17.32
2022-10-25T06:19:08.106Z,17.33
2022-10-25T06:21:36.891Z,17.26
2022-10-25T06:24:04.915Z,17.29
2022-10-25T06:26:33.104Z,17.35
2022-10-25T06:29:04.125Z,17.34
2022-10-25T06:31:33.186Z,17.40
2022-10-25T06:34:02.302Z,17.37
2022-10-25T06:36:31.405Z,17.35
2022-10-25T06:39:05.862Z,17.38
2022-10-25T06:41:38.650Z,17.42
2022-10-25T06:44:07.960Z,17.46
2022-10-25T06:49:27.055Z,17.69
2022-10-25T06:51:55.100Z,17.70
2022-10-25T06:54:22.730Z,17.75
2022-10-25T06:56:50.548Z,17.81
2022-10-25T06:59:19.475Z,17.84
2022-10-25T07:01:47.835Z,17.92
2022-10-25T07:04:16.044Z,17.99
2022-10-25T07:06:44.078Z,18.06
2022-10-25T07:09:13.250Z,18.06
2022-10-25T07:11:41.131Z,18.08
2022-10-25T07:14:09.535Z,18.01
2022-10-25T07:16:37.606Z,18.03
2022-10-25T07:19:05.363Z,18.11
2022-10-25T07:21:33.825Z,18.22
2022-10-25T07:24:01.837Z,18.37
2022-10-25T07:26:33.849Z,18.41
2022-10-25T07:29:04.306Z,18.36
2022-10-25T07:31:38.714Z,18.37
2022-10-25T07:34:06.914Z,18.42
2022-10-25T07:36:34.899Z,18.51
2022-10-25T07:39:02.394Z,18.63
2022-10-25T07:41:30.109Z,18.65
2022-10-25T07:43:57.785Z,18.67
2022-10-25T07:46:25.825Z,18.69
2022-10-25T07:48:53.453Z,18.68
2022-10-25T07:51:21.451Z,18.71
2022-10-25T07:53:50.059Z,18.76
2022-10-25T07:56:23.172Z,18.73
2022-10-25T07:58:54.497Z,18.79
2022-10-25T08:01:26.428Z,18.88
2022-10-25T08:03:55.506Z,18.92
2022-10-25T08:06:25.525Z,18.91
2022-10-25T08:08:53.347Z,18.91
2022-10-25T08:11:21.438Z,18.91
2022-10-25T08:13:50.744Z,19.03
2022-10-25T08:16:19.069Z,19.14
2022-10-25T08:18:46.830Z,19.13
2022-10-25T08:21:15.071Z,19.24
2022-10-25T08:23:42.826Z,19.21
2022-10-25T08:26:10.845Z,19.24
2022-10-25T08:28:38.407Z,19.29
2022-10-25T08:31:06.466Z,19.36
2022-10-25T08:33:34.388Z,19.41
2022-10-25T08:36:03.023Z,19.38
2022-10-25T08:38:30.828Z,19.36
2022-10-25T08:41:17.485Z,19.40
2022-10-25T08:44:31.545Z,19.50
2022-10-25T08:47:20.105Z,19.58
2022-10-25T08:50:05.955Z,19.66
2022-10-25T08:52:48.367Z,19.73
2022-10-25T08:55:34.690Z,19.78
2022-10-25T08:58:15.517Z,19.79
2022-10-25T09:00:47.268Z,19.82
2022-10-25T09:03:26.454Z,19.85
2022-10-25T09:05:56.592Z,19.91
2022-10-25T09:08:59.713Z,19.93
2022-10-25T09:12:10.849Z,19.97
2022-10-25T09:15:32.762Z,19.97
2022-10-25T09:18:09.170Z,19.92
2022-10-25T09:20:52.237Z,19.94
2022-10-25T09:23:31.285Z,19.96
2022-10-25T09:26:23.071Z,19.93
2022-10-25T09:29:42.101Z,19.91
2022-10-25T09:32:39.706Z,19.91
2022-10-25T09:35:33.159Z,19.95
2022-10-25T09:38:11.738Z,20.01
2022-10-25T09:40:56.836Z,20.06
2022-10-25T09:43:39.603Z,20.10
2022-10-25T09:46:23.445Z,20.12
2022-10-25T09:49:02.956Z,20.14
2022-10-25T09:51:44.650Z,20.15
2022-10-25T09:55:06.781Z,20.06
2022-10-25T09:57:34.283Z,19.93
2022-10-25T10:00:02.049Z,19.86
2022-10-25T10:02:41.243Z,19.86
2022-10-25T10:05:18.227Z,19.92
2022-10-25T10:07:47.821Z,19.97
2022-10-25T10:10:32.364Z,20.08
2022-10-25T10:13:24.948Z,20.20
2022-10-25T10:16:04.813Z,20.21
2022-10-25T10:18:34.287Z,20.28
2022-10-25T10:21:14.398Z,20.37
2022-10-25T10:23:47.614Z,20.44
2022-10-25T10:26:35.305Z,20.52
2022-10-25T10:29:22.257Z,20.60
2022-10-25T10:32:00.859Z,20.62
2022-10-25T10:34:43.998Z,20.64
2022-10-25T10:37:22.063Z,20.63
2022-10-25T10:40:24.348Z,20.65
2022-10-25T10:42:54.680Z,20.65
2022-10-25T10:45:24.614Z,20.70
2022-10-25T10:47:52.189Z,20.73
2022-10-25T10:50:28.848Z,20.78
2022-10-25T10:53:02.922Z,20.83
2022-10-25T10:55:46.451Z,20.89
2022-10-25T10:58:25.291Z,20.99
2022-10-25T11:01:04.825Z,21.08
2022-10-25T11:03:37.393Z,21.17
2022-10-25T11:06:28.017Z,21.29
2022-10-25T11:09:15.720Z,21.39
2022-10-25T11:11:44.465Z,21.40
2022-10-25T11:14:16.828Z,21.43
2022-10-25T11:17:14.619Z,21.34
2022-10-25T11:20:18.683Z,21.28
2022-10-25T11:23:36.607Z,21.24
2022-10-25T11:26:15.988Z,21.26
2022-10-25T11:29:01.228Z,21.34
2022-10-25T11:32:18.508Z,21.40
2022-10-25T11:35:11.115Z,21.47
2022-10-25T11:37:53.707Z,21.44
2022-10-25T11:40:35.079Z,21.47
2022-10-25T11:43:49.561Z,21.55
2022-10-25T11:46:42.148Z,21.60
2022-10-25T11:49:47.990Z,21.72
2022-10-25T11:52:33.393Z,21.78
2022-10-25T11:55:50.285Z,21.89
2022-10-25T11:58:54.677Z,21.93
2022-10-25T12:01:41.627Z,22.09
2022-10-25T12:04:40.872Z,22.18
2022-10-25T12:08:02.169Z,22.27
2022-10-25T12:10:48.084Z,22.47
2022-10-25T12:13:28.885Z,22.71
2022-10-25T12:15:58.791Z,22.92
2022-10-25T12:18:53.510Z,23.09
2022-10-25T12:21:27.956Z,23.24
2022-10-25T12:23:56.040Z,23.50
2022-10-25T12:26:30.206Z,23.60
2022-10-25T12:29:03.330Z,23.59
2022-10-25T12:31:46.344Z,23.70
2022-10-25T12:34:44.839Z,23.90
2022-10-25T12:37:57.862Z,24.11
2022-10-25T12:40:29.552Z,24.26
2022-10-25T12:43:21.616Z,24.47
2022-10-25T12:46:32.700Z,24.57
2022-10-25T12:49:46.690Z,24.77
2022-10-25T12:52:38.546Z,24.98
2022-10-25T12:55:42.805Z,25.04
2022-10-25T12:58:40.649Z,24.97
2022-10-25T13:01:15.107Z,25.11
2022-10-25T13:04:00.858Z,25.34
2022-10-25T13:06:37.734Z,25.64
2022-10-25T13:09:13.540Z,25.57
2022-10-25T13:11:48.007Z,25.65
2022-10-25T13:14:34.040Z,25.86
2022-10-25T13:17:16.910Z,26.04
2022-10-25T13:19:54.952Z,26.08
2022-10-25T13:22:35.626Z,26.11
2022-10-25T13:25:18.420Z,26.09
2022-10-25T13:28:11.765Z,25.76
2022-10-25T13:30:39.691Z,25.48
2022-10-25T13:33:21.506Z,25.25
2022-10-25T13:35:49.139Z,25.13
2022-10-25T13:38:25.004Z,24.97
2022-10-25T13:41:12.702Z,24.90
2022-10-25T13:44:06.745Z,24.96
2022-10-25T13:46:39.581Z,25.00
2022-10-25T13:49:41.039Z,25.00
2022-10-25T13:52:32.307Z,24.88
2022-10-25T13:55:02.915Z,24.64
2022-10-25T13:57:58.512Z,24.23
2022-10-25T14:00:38.351Z,23.85
2022-10-25T14:03:08.902Z,23.44
2022-10-25T14:05:55.273Z,23.06
2022-10-25T14:08:44.022Z,22.74
2022-10-25T14:11:42.386Z,22.49
2022-10-25T14:14:22.364Z,22.28
2022-10-25T14:17:27.998Z,22.00
2022-10-25T14:20:02.668Z,21.73
2022-10-25T14:22:44.100Z,21.56
2022-10-25T14:25:17.730Z,21.38
2022-10-25T14:27:45.471Z,21.23
2022-10-25T14:30:34.714Z,21.09
2022-10-25T14:33:06.289Z,20.92
2022-10-25T14:35:45.391Z,20.81
2022-10-25T14:38:28.773Z,20.73
2022-10-25T14:41:02.660Z,20.68
2022-10-25T14:43:36.951Z,20.65
2022-10-25T14:46:15.901Z,20.62
2022-10-25T14:48:46.993Z,20.55
2022-10-25T14:51:27.956Z,20.49
2022-10-25T14:54:04.283Z,20.38
2022-10-25T14:56:40.920Z,20.30
2022-10-25T14:59:50.165Z,20.23
2022-10-25T15:02:32.675Z,20.18
2022-10-25T15:05:02.433Z,20.15
2022-10-25T15:07:44.685Z,20.15
2022-10-25T15:10:30.743Z,20.12
2022-10-25T15:13:21.107Z,20.08
2022-10-25T15:15:51.415Z,20.05
2022-10-25T15:18:37.617Z,20.05
2022-10-25T15:21:17.613Z,20.01
2022-10-25T15:24:16.526Z,20.00
2022-10-25T15:27:02.652Z,19.96
2022-10-25T15:29:42.369Z,19.94
2022-10-25T15:32:19.762Z,19.91
2022-10-25T15:34:51.449Z,19.90
2022-10-25T15:37:22.232Z,19.89
2022-10-25T15:39:53.140Z,19.86
2022-10-25T15:42:23.968Z,19.85
2022-10-25T15:44:51.721Z,19.84
2022-10-25T15:47:34.644Z,19.82
2022-10-25T15:50:10.857Z,19.75
2022-10-25T15:52:38.373Z,19.69
2022-10-25T15:55:27.940Z,19.61
2022-10-25T15:57:55.550Z,19.53
2022-10-25T16:00:28.023Z,19.46
2022-10-25T16:02:57.151Z,19.40
2022-10-25T16:05:33.489Z,19.29
2022-10-25T16:08:01.618Z,19.31
2022-10-25T16:10:30.825Z,19.27
2022-10-25T16:13:04.525Z,19.24
2022-10-25T16:15:32.794Z,19.18
2022-10-25T16:18:00.637Z,19.12
2022-10-25T16:20:30.924Z,19.08
2022-10-25T16:22:58.589Z,19.05
2022-10-25T16:25:30.485Z,19.00
2022-10-25T16:28:00.924Z,18.97
2022-10-25T16:30:35.359Z,18.95
2022-10-25T16:33:04.126Z,18.92
2022-10-25T16:35:31.862Z,18.88
2022-10-25T16:37:59.672Z,18.83
2022-10-25T16:40:28.359Z,18.81
2022-10-25T16:42:58.352Z,18.77
2022-10-25T16:45:31.706Z,18.76
2022-10-25T16:47:59.782Z,18.73
2022-10-25T16:50:30.697Z,18.74
2022-10-25T16:53:01.350Z,18.71
2022-10-25T16:55:30.603Z,18.71
2022-10-25T16:57:59.868Z,18.72
2022-10-25T17:00:32.441Z,18.73
2022-10-25T17:03:00.082Z,18.72
2022-10-25T17:05:30.392Z,18.68
2022-10-25T17:07:58.073Z,18.65
2022-10-25T17:10:26.261Z,18.62
2022-10-25T17:13:03.996Z,18.62
2022-10-25T17:15:33.193Z,18.61
2022-10-25T17:18:00.719Z,18.59
2022-10-25T17:20:29.062Z,18.58
2022-10-25T17:22:57.337Z,18.52
2022-10-25T17:25:25.157Z,18.51
2022-10-25T17:27:54.066Z,18.47
2022-10-25T17:30:22.042Z,18.46
2022-10-25T17:32:50.164Z,18.44
2022-10-25T17:35:19.719Z,18.43
2022-10-25T17:37:48.111Z,18.43
2022-10-25T17:40:16.096Z,18.43
2022-10-25T17:42:43.601Z,18.41
2022-10-25T17:45:11.588Z,18.42
2022-10-25T17:47:42.601Z,18.38
2022-10-25T17:50:12.871Z,18.35
2022-10-25T17:52:42.275Z,18.31
2022-10-25T17:55:13.802Z,18.28
2022-10-25T17:57:41.336Z,18.23
2022-10-25T18:00:10.401Z,18.20
2022-10-25T18:02:44.026Z,18.16
2022-10-25T18:05:20.609Z,18.14
2022-10-25T18:07:49.535Z,18.17
2022-10-25T18:10:17.591Z,18.18
2022-10-25T18:12:46.280Z,18.18
2022-10-25T18:15:14.448Z,18.20
2022-10-25T18:17:43.166Z,18.20
2022-10-25T18:20:11.401Z,18.21
2022-10-25T18:22:38.947Z,18.21
2022-10-25T18:25:07.865Z,18.21
2022-10-25T18:27:35.748Z,18.23
2022-10-25T18:30:04.844Z,18.26
2022-10-25T18:32:36.161Z,18.26
2022-10-25T18:35:04.500Z,18.28
2022-10-25T18:37:33.020Z,18.30
2022-10-25T18:40:00.754Z,18.31
2022-10-25T18:42:28.278Z,18.31
2022-10-25T18:44:56.078Z,18.32
2022-10-25T18:47:23.752Z,18.25
2022-10-25T18:49:51.569Z,18.22
2022-10-25T18:52:19.090Z,18.19
2022-10-25T18:54:46.970Z,18.18
2022-10-25T18:57:15.636Z,18.18
2022-10-25T18:59:43.483Z,18.20
2022-10-25T19:02:11.884Z,18.21
2022-10-25T19:04:40.437Z,18.22
2022-10-25T19:07:07.894Z,18.23
2022-10-25T19:09:35.654Z,18.23
2022-10-25T19:12:03.198Z,18.21
2022-10-25T19:14:30.959Z,18.19
2022-10-25T19:16:58.481Z,18.20
2022-10-25T19:19:26.801Z,18.19
2022-10-25T19:21:55.050Z,18.19
2022-10-25T19:24:23.110Z,18.20
2022-10-25T19:26:51.029Z,18.20
2022-10-25T19:29:19.110Z,18.18
2022-10-25T19:31:46.674Z,18.16
2022-10-25T19:34:14.423Z,18.15
2022-10-25T19:36:41.945Z,18.16
2022-10-25T19:39:10.527Z,18.10
2022-10-25T19:41:38.154Z,18.07
2022-10-25T19:44:05.980Z,18.05
2022-10-25T19:46:33.638Z,18.03
2022-10-25T19:49:01.896Z,18.02
2022-10-25T19:51:44.227Z,17.99
2022-10-25T19:54:21.202Z,17.93
2022-10-25T19:57:14.273Z,17.91
2022-10-25T19:59:46.625Z,17.90
2022-10-25T20:02:14.843Z,17.83
2022-10-25T20:04:47.727Z,17.81
2022-10-25T20:07:16.755Z,17.78
2022-10-25T20:09:44.703Z,17.78
2022-10-25T20:12:12.822Z,17.77
2022-10-25T20:14:40.652Z,17.74
2022-10-25T20:17:09.054Z,17.76
2022-10-25T20:19:36.791Z,17.69
2022-10-25T20:22:05.608Z,17.60
2022-10-25T20:24:33.560Z,17.55
2022-10-25T20:27:02.708Z,17.54
2022-10-25T20:29:30.431Z,17.55
2022-10-25T20:31:57.928Z,17.50
2022-10-25T20:34:25.809Z,17.49
2022-10-25T20:36:53.749Z,17.51
2022-10-25T20:39:21.543Z,17.52
2022-10-25T20:41:49.029Z,17.53
2022-10-25T20:44:57.960Z,17.52
2022-10-25T20:47:39.861Z,17.51
2022-10-25T20:50:26.363Z,17.50
2022-10-25T20:53:12.102Z,17.47
2022-10-25T20:55:45.350Z,17.46
2022-10-25T20:58:18.637Z,17.47
2022-10-25T21:01:14.841Z,17.47
2022-10-25T21:04:25.889Z,17.46
2022-10-25T21:07:51.644Z,17.44
2022-10-25T21:10:36.914Z,17.45
2022-10-25T21:14:20.785Z,17.46
2022-10-25T21:16:55.070Z,17.45
2022-10-25T21:19:29.839Z,17.44
2022-10-25T21:22:10.375Z,17.43
2022-10-25T21:24:41.939Z,17.40
2022-10-25T21:27:10.503Z,17.36
2022-10-25T21:29:38.397Z,17.35
2022-10-25T21:32:05.987Z,17.32
2022-10-25T21:34:33.759Z,17.33
2022-10-25T21:37:23.078Z,17.30
2022-10-25T21:40:01.767Z,17.29
2022-10-25T21:42:40.533Z,17.26
2022-10-25T21:45:15.214Z,17.22
2022-10-25T21:47:46.199Z,17.16
2022-10-25T21:50:23.837Z,17.10
2022-10-25T21:52:58.525Z,17.03
2022-10-25T21:55:34.077Z,16.96
2022-10-25T21:58:05.165Z,16.91
2022-10-25T22:00:36.485Z,16.90
2022-10-25T22:03:04.223Z,16.85
2022-10-25T22:05:33.329Z,16.85
2022-10-25T22:08:00.907Z,16.82
2022-10-25T22:10:29.739Z,16.80
2022-10-25T22:12:58.961Z,16.74
2022-10-25T22:15:44.570Z,16.71
2022-10-25T22:18:12.605Z,16.64
2022-10-25T22:20:42.883Z,16.60
2022-10-25T22:23:21.697Z,16.55
2022-10-25T22:25:56.494Z,16.49
2022-10-25T22:28:27.440Z,16.47
2022-10-25T22:31:07.220Z,16.43
2022-10-25T22:33:35.471Z,16.41
2022-10-25T22:36:17.940Z,16.35
2022-10-25T22:38:48.246Z,16.32
2022-10-25T22:41:24.380Z,16.25
2022-10-25T22:43:52.693Z,16.23
2022-10-25T22:46:26.443Z,16.20
2022-10-25T22:48:57.282Z,16.17
2022-10-25T22:51:27.916Z,16.15
2022-10-25T22:53:55.976Z,16.13
2022-10-25T22:56:26.554Z,16.10
2022-10-25T22:58:57.536Z,16.07
2022-10-25T23:01:35.079Z,16.04
2022-10-25T23:04:06.815Z,16.00
2022-10-25T23:06:39.052Z,15.98
2022-10-25T23:09:10.677Z,15.97
2022-10-25T23:11:41.419Z,15.93
2022-10-25T23:14:14.822Z,15.90
2022-10-25T23:16:46.368Z,15.87
2022-10-25T23:19:13.996Z,15.86
2022-10-25T23:21:41.838Z,15.84
2022-10-25T23:24:09.643Z,15.82
2022-10-25T23:26:37.550Z,15.83
2022-10-25T23:29:05.900Z,15.80
2022-10-25T23:31:33.843Z,15.78
2022-10-25T23:34:01.927Z,15.74
2022-10-25T23:36:37.778Z,15.74
2022-10-25T23:39:07.661Z,15.74
2022-10-25T23:41:35.742Z,15.73
2022-10-25T23:44:03.551Z,15.70
2022-10-25T23:46:31.407Z,15.68
2022-10-25T23:48:59.013Z,15.70
2022-10-25T23:51:27.014Z,15.69
2022-10-25T23:53:54.859Z,15.70
2022-10-25T23:56:22.804Z,15.67
2022-10-25T23:58:53.738Z,15.66
